Terminal Aerodrome Forecast
Issued by NWS

Home | Current Version | Previous Version | Graphics & Text | Print | Product List | Glossary On
Versions: 1 2 3 4 5 6 7 8 9 10 11 12 13 14 15 16 17 18 19 20 21 22
000
FTUS43 KICT 260709 AAA
TAFCNU
TAF AMD
KCNU 260709Z 2607/2706 30006KT P6SM SCT005 OVC008
     FM261500 20004KT P6SM SCT009 BKN015
     FM261800 10007KT P6SM SCT130
     FM270000 08008KT P6SM VCTS BKN045CB
     FM270500 07012KT P6SM VCTS OVC015CB=

USA.gov is the U.S. government's official web portal to all federal, state and local government web resources and services.